createdAt,value
2022-09-23T00:01:17.027Z,87.66
2022-09-23T00:03:46.271Z,87.90
2022-09-23T00:06:16.440Z,87.81
2022-09-23T00:08:44.175Z,87.88
2022-09-23T00:11:17.055Z,88.36
2022-09-23T00:13:45.491Z,88.31
2022-09-23T00:16:23.503Z,88.68
2022-09-23T00:18:50.945Z,88.54
2022-09-23T00:21:20.386Z,88.74
2022-09-23T00:23:47.606Z,88.89
2022-09-23T00:26:17.525Z,88.96
2022-09-23T00:28:45.186Z,89.03
2022-09-23T00:31:15.497Z,88.74
2022-09-23T00:33:42.882Z,89.32
2022-09-23T00:36:12.713Z,89.26
2022-09-23T00:38:39.677Z,89.60
2022-09-23T00:41:06.721Z,89.93
2022-09-23T00:43:58.467Z,90.15
2022-09-23T00:46:43.811Z,90.34
2022-09-23T00:49:29.279Z,90.28
2022-09-23T00:52:02.557Z,90.26
2022-09-23T00:54:31.167Z,90.60
2022-09-23T00:57:00.135Z,90.53
2022-09-23T00:59:29.207Z,90.19
2022-09-23T01:01:58.119Z,90.17
2022-09-23T01:04:28.184Z,89.93
2022-09-23T01:06:55.417Z,90.15
2022-09-23T01:09:23.237Z,89.89
2022-09-23T01:12:06.253Z,90.00
2022-09-23T01:14:55.216Z,89.49
2022-09-23T01:17:49.037Z,89.69
2022-09-23T01:20:39.426Z,89.67
2022-09-23T01:23:09.397Z,89.65
2022-09-23T01:26:01.755Z,88.92
2022-09-23T01:28:53.028Z,88.65
2022-09-23T01:31:45.068Z,88.63
2022-09-23T01:34:16.028Z,88.75
2022-09-23T01:36:49.698Z,88.49
2022-09-23T01:39:32.752Z,88.38
2022-09-23T01:42:17.426Z,88.27
2022-09-23T01:44:57.105Z,88.28
2022-09-23T01:47:30.713Z,88.31
2022-09-23T01:49:59.841Z,88.29
2022-09-23T01:52:30.664Z,87.88
2022-09-23T01:55:04.550Z,87.81
2022-09-23T01:57:37.748Z,88.21
2022-09-23T02:00:25.598Z,87.94
2022-09-23T02:03:01.629Z,87.57
2022-09-23T02:05:36.997Z,88.04
2022-09-23T02:08:33.854Z,88.04
2022-09-23T02:11:08.233Z,88.28
2022-09-23T02:13:48.929Z,87.80
2022-09-23T02:16:24.790Z,87.82
2022-09-23T02:19:27.218Z,87.98
2022-09-23T02:22:03.925Z,88.06
2022-09-23T02:24:34.771Z,87.81
2022-09-23T02:27:13.906Z,87.74
2022-09-23T02:30:06.170Z,88.11
2022-09-23T02:32:42.203Z,87.96
2022-09-23T02:35:17.054Z,87.91
2022-09-23T02:38:01.056Z,87.77
2022-09-23T02:40:31.242Z,87.57
2022-09-23T02:43:23.090Z,87.54
2022-09-23T02:45:50.582Z,87.38
2022-09-23T02:48:22.888Z,87.27
2022-09-23T02:50:51.191Z,87.53
2022-09-23T02:53:18.186Z,87.18
2022-09-23T02:55:46.398Z,87.21
2022-09-23T02:58:14.398Z,87.35
2022-09-23T03:01:00.360Z,86.99
2022-09-23T03:03:40.905Z,86.88
2022-09-23T03:06:32.293Z,87.13
2022-09-23T03:09:09.264Z,87.03
2022-09-23T03:11:40.651Z,86.89
2022-09-23T03:14:36.349Z,86.90
2022-09-23T03:17:30.592Z,87.10
2022-09-23T03:20:06.629Z,87.30
2022-09-23T03:22:39.487Z,87.32
2022-09-23T03:25:12.380Z,87.07
2022-09-23T03:27:42.533Z,87.42
2022-09-23T03:30:10.966Z,87.27
2022-09-23T03:32:42.443Z,87.59
2022-09-23T03:35:10.791Z,87.35
2022-09-23T03:37:40.928Z,87.39
2022-09-23T03:40:19.507Z,87.14
2022-09-23T03:42:49.477Z,87.22
2022-09-23T03:45:22.491Z,87.43
2022-09-23T03:47:49.820Z,87.54
2022-09-23T03:50:17.450Z,86.66
2022-09-23T03:52:44.848Z,86.76
2022-09-23T03:55:12.185Z,86.62
2022-09-23T03:57:39.815Z,86.45
2022-09-23T04:00:08.098Z,86.83
2022-09-23T04:05:29.752Z,86.49
2022-09-23T04:07:57.561Z,86.41
2022-09-23T04:10:24.682Z,86.54
2022-09-23T04:12:51.639Z,86.58
2022-09-23T04:15:19.589Z,86.63
2022-09-23T04:17:47.351Z,86.34
2022-09-23T04:20:14.677Z,86.49
2022-09-23T04:22:42.116Z,86.25
2022-09-23T04:25:09.598Z,86.22
2022-09-23T04:27:38.954Z,85.96
2022-09-23T04:30:07.691Z,85.76
2022-09-23T04:32:35.654Z,85.80
2022-09-23T04:35:02.918Z,85.68
2022-09-23T04:37:30.534Z,85.39
2022-09-23T04:39:57.698Z,84.57
2022-09-23T04:42:24.728Z,84.36
2022-09-23T04:44:52.077Z,84.48
2022-09-23T04:47:20.484Z,84.45
2022-09-23T04:49:49.218Z,84.61
2022-09-23T04:52:18.184Z,84.27
2022-09-23T04:54:46.045Z,83.97
2022-09-23T04:57:14.415Z,83.45
2022-09-23T04:59:41.907Z,83.80
2022-09-23T05:02:11.869Z,83.55
2022-09-23T05:04:39.599Z,83.41
2022-09-23T05:07:07.480Z,82.82
2022-09-23T05:09:43.354Z,82.78
2022-09-23T05:12:14.605Z,82.86
2022-09-23T05:14:41.726Z,83.14
2022-09-23T05:17:08.733Z,82.04
2022-09-23T05:19:38.518Z,81.79
2022-09-23T05:22:06.519Z,82.27
2022-09-23T05:24:33.620Z,82.22
2022-09-23T05:27:11.034Z,80.95
2022-09-23T05:29:57.909Z,80.55
2022-09-23T05:32:40.421Z,79.93
2022-09-23T05:35:08.109Z,79.21
2022-09-23T05:37:38.008Z,79.06
2022-09-23T05:40:08.476Z,79.70
2022-09-23T05:42:43.121Z,78.38
2022-09-23T05:45:10.523Z,78.17
2022-09-23T05:47:38.386Z,78.61
2022-09-23T05:50:16.759Z,78.50
2022-09-23T05:52:51.312Z,77.87
2022-09-23T05:55:18.476Z,77.48
2022-09-23T05:57:48.751Z,78.12
2022-09-23T06:00:20.844Z,77.69
2022-09-23T06:02:49.496Z,77.60
2022-09-23T06:05:18.081Z,76.48
2022-09-23T06:07:48.204Z,75.63
2022-09-23T06:10:16.487Z,75.51
2022-09-23T06:12:45.136Z,75.50
2022-09-23T06:15:12.488Z,74.72
2022-09-23T06:17:40.626Z,74.49
2022-09-23T06:20:24.963Z,74.73
2022-09-23T06:22:55.339Z,75.26
2022-09-23T06:25:23.141Z,75.78
2022-09-23T06:27:57.195Z,76.35
2022-09-23T06:30:25.249Z,76.33
2022-09-23T06:32:54.008Z,76.79
2022-09-23T06:35:27.832Z,76.93
2022-09-23T06:37:55.543Z,76.21
2022-09-23T06:40:23.106Z,76.41
2022-09-23T06:42:58.578Z,76.39
2022-09-23T06:45:27.235Z,76.31
2022-09-23T06:47:59.119Z,76.43
2022-09-23T06:50:27.905Z,75.73
2022-09-23T06:52:56.415Z,75.28
2022-09-23T06:55:24.783Z,74.35
2022-09-23T06:57:52.070Z,74.08
2022-09-23T07:00:20.176Z,73.67
2022-09-23T07:02:47.628Z,73.48
2022-09-23T07:05:17.431Z,73.21
2022-09-23T07:07:45.133Z,73.35
2022-09-23T07:10:12.454Z,73.32
2022-09-23T07:12:39.970Z,72.79
2022-09-23T07:15:08.552Z,72.77
2022-09-23T07:17:35.789Z,72.23
2022-09-23T07:20:04.232Z,72.64
2022-09-23T07:22:33.641Z,72.16
2022-09-23T07:27:50.338Z,72.02
2022-09-23T07:30:24.709Z,72.12
2022-09-23T07:32:57.434Z,71.86
2022-09-23T07:35:26.415Z,71.83
2022-09-23T07:37:54.821Z,71.85
2022-09-23T07:40:25.103Z,70.69
2022-09-23T07:42:52.217Z,70.13
2022-09-23T07:45:20.068Z,70.15
2022-09-23T07:47:47.111Z,70.82
2022-09-23T07:50:14.345Z,69.98
2022-09-23T07:52:41.682Z,69.94
2022-09-23T07:55:12.021Z,69.41
2022-09-23T07:57:39.257Z,69.59
2022-09-23T08:00:22.997Z,69.34
2022-09-23T08:02:53.253Z,68.20
2022-09-23T08:05:22.699Z,67.35
2022-09-23T08:07:49.992Z,68.27
2022-09-23T08:10:20.921Z,67.66
2022-09-23T08:12:49.071Z,64.88
2022-09-23T08:15:17.673Z,65.31
2022-09-23T08:17:45.071Z,64.29
2022-09-23T08:20:34.867Z,63.80
2022-09-23T08:23:02.478Z,59.88
2022-09-23T08:25:32.306Z,56.24
2022-09-23T08:28:01.364Z,49.95
2022-09-23T08:30:28.686Z,48.64
2022-09-23T08:32:55.767Z,49.98
2022-09-23T08:35:25.497Z,52.12
2022-09-23T08:37:52.795Z,54.74
2022-09-23T08:40:20.062Z,56.63
2022-09-23T08:42:50.316Z,55.07
2022-09-23T08:45:27.000Z,49.33
2022-09-23T08:48:03.631Z,44.78
2022-09-23T08:50:42.552Z,42.56
2022-09-23T08:53:26.444Z,38.53
2022-09-23T08:55:57.981Z,38.99
2022-09-23T08:58:43.384Z,38.18
2022-09-23T09:01:23.154Z,37.80
2022-09-23T09:03:56.617Z,38.19
2022-09-23T09:06:51.771Z,36.72
2022-09-23T09:09:23.789Z,39.75
2022-09-23T09:11:58.204Z,37.45
2022-09-23T09:14:50.084Z,35.43
2022-09-23T09:17:49.095Z,36.51
2022-09-23T09:21:07.412Z,37.27
2022-09-23T09:24:00.438Z,37.48
2022-09-23T09:26:32.232Z,38.03
2022-09-23T09:29:30.808Z,38.29
2022-09-23T09:31:54.617Z,41.46
2022-09-23T09:34:33.896Z,44.29
2022-09-23T09:37:35.261Z,43.86
2022-09-23T09:40:21.416Z,41.70
2022-09-23T09:42:55.692Z,42.14
2022-09-23T09:45:37.967Z,42.57
2022-09-23T09:48:21.782Z,43.19
2022-09-23T09:50:53.400Z,43.51
2022-09-23T09:53:32.251Z,44.05
2022-09-23T09:56:05.022Z,45.30
2022-09-23T09:58:44.221Z,46.38
2022-09-23T10:01:23.994Z,47.71
2022-09-23T10:03:56.989Z,49.09
2022-09-23T10:06:36.831Z,49.82
2022-09-23T10:09:20.345Z,50.68
2022-09-23T10:12:17.115Z,51.82
2022-09-23T10:14:51.526Z,52.80
2022-09-23T10:23:18.029Z,53.83
2022-09-23T10:28:52.855Z,53.55
2022-09-23T10:31:29.428Z,53.75
2022-09-23T10:34:23.289Z,53.17
2022-09-23T10:37:12.158Z,51.54
2022-09-23T10:39:58.607Z,51.00
2022-09-23T10:43:08.034Z,51.99
2022-09-23T10:45:58.584Z,51.29
2022-09-23T10:49:02.590Z,51.76
2022-09-23T10:51:41.987Z,51.98
2022-09-23T10:54:18.615Z,52.42
2022-09-23T10:57:02.004Z,52.34
2022-09-23T10:59:41.299Z,51.52
2022-09-23T11:02:54.194Z,50.99
2022-09-23T11:05:21.738Z,50.57
2022-09-23T11:07:54.843Z,50.55
2022-09-23T11:10:49.882Z,50.80
2022-09-23T11:13:43.307Z,51.37
2022-09-23T11:16:41.302Z,52.12
2022-09-23T11:19:45.597Z,52.10
2022-09-23T11:22:32.470Z,52.82
2022-09-23T11:25:08.540Z,52.88
2022-09-23T11:27:51.296Z,53.06
2022-09-23T11:30:20.260Z,52.97
2022-09-23T11:33:06.415Z,53.04
2022-09-23T11:35:41.119Z,52.67
2022-09-23T11:38:13.304Z,52.39
2022-09-23T11:40:45.605Z,52.86
2022-09-23T11:43:32.195Z,53.18
2022-09-23T11:46:32.092Z,52.71
2022-09-23T11:49:12.202Z,53.06
2022-09-23T11:52:19.810Z,54.15
2022-09-23T11:55:20.956Z,54.18
2022-09-23T11:58:00.144Z,54.01
2022-09-23T12:00:36.331Z,54.07
2022-09-23T12:03:24.892Z,53.37
2022-09-23T12:06:14.298Z,53.49
2022-09-23T12:08:42.841Z,53.83
2022-09-23T12:11:23.554Z,54.17
2022-09-23T12:14:09.849Z,52.80
2022-09-23T12:17:05.269Z,52.10
2022-09-23T12:19:57.613Z,53.05
2022-09-23T12:22:43.253Z,53.48
2022-09-23T12:25:46.663Z,53.65
2022-09-23T12:28:19.657Z,53.81
2022-09-23T12:30:48.761Z,53.94
2022-09-23T12:33:27.786Z,53.78
2022-09-23T12:36:05.013Z,52.54
2022-09-23T12:38:37.891Z,53.15
2022-09-23T12:41:36.672Z,52.47
2022-09-23T12:44:27.110Z,52.38
2022-09-23T12:47:23.715Z,53.40
2022-09-23T12:49:54.891Z,53.09
2022-09-23T12:52:41.994Z,52.54
2022-09-23T12:55:22.253Z,52.13
2022-09-23T12:57:49.446Z,52.28
2022-09-23T13:00:30.975Z,53.05
2022-09-23T13:06:27.179Z,53.61
2022-09-23T13:08:54.789Z,53.46
2022-09-23T13:11:26.792Z,53.54
2022-09-23T13:13:56.761Z,53.99
2022-09-23T13:16:30.051Z,54.07
2022-09-23T13:19:01.244Z,54.00
2022-09-23T13:21:44.698Z,52.95
2022-09-23T13:24:31.527Z,52.74
2022-09-23T13:27:02.065Z,52.86
2022-09-23T13:29:44.338Z,52.70
2022-09-23T13:32:20.743Z,52.12
2022-09-23T13:35:07.141Z,52.86
2022-09-23T13:40:37.140Z,53.92
2022-09-23T13:43:41.369Z,53.75
2022-09-23T13:46:14.191Z,54.28
2022-09-23T13:48:45.656Z,54.04
2022-09-23T13:51:26.083Z,53.99
2022-09-23T13:53:59.037Z,53.83
2022-09-23T13:56:28.959Z,54.76
2022-09-23T13:59:23.802Z,56.07
2022-09-23T14:01:50.820Z,55.31
2022-09-23T14:04:25.786Z,55.34
2022-09-23T14:06:54.756Z,55.64
2022-09-23T14:09:27.612Z,54.62
2022-09-23T14:12:00.509Z,53.67
2022-09-23T14:14:30.719Z,53.23
2022-09-23T14:16:59.025Z,52.57
2022-09-23T14:19:26.632Z,52.72
2022-09-23T14:21:59.160Z,52.33
2022-09-23T14:24:37.679Z,51.75
2022-09-23T14:27:16.390Z,51.72
2022-09-23T14:29:52.026Z,51.79
2022-09-23T14:32:23.288Z,51.78
2022-09-23T14:35:05.264Z,52.27
2022-09-23T14:37:55.714Z,52.55
2022-09-23T14:41:15.630Z,53.30
2022-09-23T14:43:50.261Z,53.16
2022-09-23T14:46:23.175Z,53.62
2022-09-23T14:49:17.830Z,53.66
2022-09-23T14:51:50.960Z,53.84
2022-09-23T14:54:32.499Z,54.22
2022-09-23T14:57:00.872Z,54.51
2022-09-23T14:59:33.791Z,54.40
2022-09-23T15:02:02.651Z,55.10
2022-09-23T15:04:31.544Z,55.31
2022-09-23T15:07:04.169Z,54.92
2022-09-23T15:09:38.267Z,55.34
2022-09-23T15:12:16.934Z,55.85
2022-09-23T15:14:50.869Z,55.87
2022-09-23T15:17:25.444Z,56.47
2022-09-23T15:19:59.803Z,56.84
2022-09-23T15:22:28.383Z,57.01
2022-09-23T15:25:14.675Z,57.18
2022-09-23T15:27:41.732Z,57.43
2022-09-23T15:30:15.207Z,57.65
2022-09-23T15:35:51.022Z,57.81
2022-09-23T15:38:18.495Z,58.52
2022-09-23T15:40:46.331Z,58.84
2022-09-23T15:43:23.205Z,59.00
2022-09-23T15:45:57.298Z,59.51
2022-09-23T15:48:39.530Z,59.43
2022-09-23T15:51:10.018Z,59.58
2022-09-23T15:53:38.296Z,60.18
2022-09-23T15:56:06.345Z,60.75
2022-09-23T15:58:33.721Z,61.17
2022-09-23T16:01:01.175Z,60.91
2022-09-23T16:03:31.100Z,61.18
2022-09-23T16:06:02.589Z,61.29
2022-09-23T16:08:32.374Z,61.31
2022-09-23T16:11:00.032Z,61.86
2022-09-23T16:13:27.163Z,62.19
2022-09-23T16:15:54.611Z,62.03
2022-09-23T16:18:22.232Z,62.11
2022-09-23T16:20:50.365Z,62.08
2022-09-23T16:23:38.955Z,62.10
2022-09-23T16:26:24.905Z,62.19
2022-09-23T16:28:54.708Z,62.36
2022-09-23T16:31:29.739Z,62.70
2022-09-23T16:33:58.205Z,62.71
2022-09-23T16:36:29.009Z,62.94
2022-09-23T16:38:56.212Z,63.45
2022-09-23T16:41:24.764Z,63.45
2022-09-23T16:43:53.020Z,63.69
2022-09-23T16:46:20.887Z,63.55
2022-09-23T16:48:52.347Z,63.99
2022-09-23T16:51:23.867Z,64.24
2022-09-23T16:53:53.084Z,64.23
2022-09-23T16:56:27.942Z,64.56
2022-09-23T16:58:56.855Z,64.36
2022-09-23T17:01:45.775Z,64.48
2022-09-23T17:04:16.152Z,64.46
2022-09-23T17:06:44.330Z,64.88
2022-09-23T17:09:11.498Z,64.58
2022-09-23T17:11:38.763Z,64.71
2022-09-23T17:14:05.914Z,64.94
2022-09-23T17:16:35.069Z,65.10
2022-09-23T17:19:11.605Z,65.18
2022-09-23T17:24:34.814Z,64.66
2022-09-23T17:27:02.230Z,65.17
2022-09-23T17:29:30.041Z,64.84
2022-09-23T17:31:57.147Z,64.85
2022-09-23T17:34:25.524Z,64.98
2022-09-23T17:36:52.675Z,64.21
2022-09-23T17:39:20.722Z,64.09
2022-09-23T17:41:49.237Z,63.86
2022-09-23T17:44:17.942Z,63.30
2022-09-23T17:46:44.964Z,63.27
2022-09-23T17:49:15.616Z,63.03
2022-09-23T17:51:42.898Z,63.08
2022-09-23T17:54:11.119Z,62.13
2022-09-23T17:56:38.580Z,61.97
2022-09-23T17:59:06.532Z,61.41
2022-09-23T18:01:37.978Z,61.83
2022-09-23T18:04:05.875Z,62.03
2022-09-23T18:06:39.218Z,62.28
2022-09-23T18:09:15.122Z,62.33
2022-09-23T18:11:44.724Z,62.27
2022-09-23T18:14:18.630Z,62.22
2022-09-23T18:16:50.081Z,62.19
2022-09-23T18:19:19.625Z,62.19
2022-09-23T18:21:50.733Z,62.77
2022-09-23T18:24:31.891Z,62.60
2022-09-23T18:27:02.328Z,63.29
2022-09-23T18:29:29.906Z,63.22
2022-09-23T18:31:57.596Z,63.67
2022-09-23T18:34:25.353Z,63.76
2022-09-23T18:36:54.308Z,63.59
2022-09-23T18:39:21.304Z,62.88
2022-09-23T18:41:49.740Z,62.76
2022-09-23T18:44:17.104Z,62.99
2022-09-23T18:46:44.910Z,62.53
2022-09-23T18:49:30.903Z,62.61
2022-09-23T18:51:58.383Z,62.30
2022-09-23T18:54:29.035Z,62.36
2022-09-23T18:56:57.326Z,62.99
2022-09-23T18:59:28.062Z,63.48
2022-09-23T19:01:57.613Z,63.63
2022-09-23T19:04:26.720Z,63.73
2022-09-23T19:06:56.619Z,64.08
2022-09-23T19:09:24.151Z,64.82
2022-09-23T19:11:53.418Z,64.11
2022-09-23T19:14:24.096Z,64.45
2022-09-23T19:16:51.708Z,64.48
2022-09-23T19:19:20.975Z,64.46
2022-09-23T19:21:48.093Z,65.15
2022-09-23T19:24:20.601Z,64.86
2022-09-23T19:26:48.785Z,64.52
2022-09-23T19:29:19.729Z,64.78
2022-09-23T19:31:47.875Z,64.78
2022-09-23T19:34:17.747Z,65.27
2022-09-23T19:36:47.194Z,65.63
2022-09-23T19:39:23.216Z,65.33
2022-09-23T19:41:52.425Z,65.24
2022-09-23T19:44:20.277Z,65.38
2022-09-23T19:46:53.466Z,65.79
2022-09-23T19:49:24.706Z,66.11
2022-09-23T19:51:53.036Z,65.84
2022-09-23T19:54:20.956Z,66.06
2022-09-23T19:56:49.710Z,66.40
2022-09-23T19:59:18.988Z,66.41
2022-09-23T20:01:47.962Z,66.21
2022-09-23T20:04:17.252Z,66.82
2022-09-23T20:06:47.746Z,66.93
2022-09-23T20:09:15.135Z,66.66
2022-09-23T20:11:43.051Z,66.87
2022-09-23T20:14:10.551Z,67.42
2022-09-23T20:16:38.180Z,67.55
2022-09-23T20:19:05.957Z,67.89
2022-09-23T20:21:34.304Z,67.64
2022-09-23T20:24:01.998Z,68.18
2022-09-23T20:26:47.802Z,68.51
2022-09-23T20:29:15.125Z,69.23
2022-09-23T20:31:42.605Z,69.08
2022-09-23T20:34:10.714Z,68.83
2022-09-23T20:36:39.663Z,69.34
2022-09-23T20:39:07.316Z,69.84
2022-09-23T20:41:37.705Z,69.75
2022-09-23T20:44:09.538Z,69.86
2022-09-23T20:46:36.937Z,70.30
2022-09-23T20:49:04.617Z,70.48
2022-09-23T20:51:35.093Z,70.58
2022-09-23T20:54:02.499Z,70.44
2022-09-23T20:56:29.621Z,70.71
2022-09-23T20:59:01.390Z,70.86
2022-09-23T21:01:29.372Z,70.45
2022-09-23T21:03:56.367Z,70.59
2022-09-23T21:06:26.493Z,70.59
2022-09-23T21:08:55.043Z,71.00
2022-09-23T21:14:18.616Z,71.15
2022-09-23T21:16:46.111Z,71.21
2022-09-23T21:19:13.449Z,71.22
2022-09-23T21:21:40.382Z,71.01
2022-09-23T21:24:40.126Z,71.25
2022-09-23T21:26:57.323Z,71.77
2022-09-23T21:29:24.563Z,72.16
2022-09-23T21:31:51.598Z,72.26
2022-09-23T21:34:19.498Z,73.50
2022-09-23T21:36:48.202Z,74.14
2022-09-23T21:39:15.457Z,74.06
2022-09-23T21:41:42.527Z,74.23
2022-09-23T21:44:09.901Z,74.32
2022-09-23T21:46:37.302Z,74.57
2022-09-23T21:49:05.128Z,75.62
2022-09-23T21:51:41.372Z,75.26
2022-09-23T21:54:14.811Z,75.35
2022-09-23T21:56:43.492Z,75.65
2022-09-23T21:59:10.920Z,75.79
2022-09-23T22:01:41.542Z,75.97
2022-09-23T22:04:17.765Z,76.19
2022-09-23T22:06:45.921Z,75.34
2022-09-23T22:09:16.947Z,75.88
2022-09-23T22:12:03.060Z,76.65
2022-09-23T22:14:30.768Z,75.86
2022-09-23T22:17:02.828Z,75.22
2022-09-23T22:19:35.859Z,75.20
2022-09-23T22:22:08.091Z,75.06
2022-09-23T22:24:35.060Z,74.33
2022-09-23T22:27:02.002Z,74.33
2022-09-23T22:29:47.939Z,74.51
2022-09-23T22:32:33.575Z,73.87
2022-09-23T22:35:00.929Z,73.93
2022-09-23T22:37:34.323Z,73.90
2022-09-23T22:40:06.968Z,73.51
2022-09-23T22:42:36.073Z,73.57
2022-09-23T22:45:06.002Z,74.08
2022-09-23T22:47:40.807Z,73.61
2022-09-23T22:50:09.241Z,73.70
2022-09-23T22:52:42.166Z,74.07
2022-09-23T22:55:11.373Z,74.16
2022-09-23T22:57:38.401Z,74.25
2022-09-23T23:00:07.369Z,74.29
2022-09-23T23:02:34.662Z,74.79
2022-09-23T23:05:02.319Z,74.73
2022-09-23T23:07:29.470Z,74.65
2022-09-23T23:09:56.687Z,74.82
2022-09-23T23:12:24.297Z,74.81
2022-09-23T23:14:53.122Z,74.82
2022-09-23T23:17:20.277Z,75.23
2022-09-23T23:19:47.856Z,75.35
2022-09-23T23:22:14.921Z,75.52
2022-09-23T23:24:43.053Z,75.41
2022-09-23T23:27:10.101Z,75.30
2022-09-23T23:29:38.154Z,75.80
2022-09-23T23:32:06.095Z,75.45
2022-09-23T23:34:33.062Z,75.74
2022-09-23T23:37:00.022Z,75.77
2022-09-23T23:39:27.844Z,75.42
2022-09-23T23:41:56.090Z,75.80
2022-09-23T23:44:24.962Z,76.02
2022-09-23T23:46:53.325Z,76.09
2022-09-23T23:49:21.594Z,76.58
2022-09-23T23:51:48.722Z,76.55
2022-09-23T23:54:15.982Z,76.85
2022-09-23T23:56:43.592Z,77.19
2022-09-23T23:59:11.173Z,77.42
